Terminal Aerodrome Forecast
Issued by NWS

Home | Current Version | Previous Version | Text Only | Print | Product List | Glossary On
Versions: 1 2 3 4 5 6 7 8 9 10 11 12 13 14 15 16 17 18 19 20 21 22 23 24
000
FTUS46 KEKA 301724
TAFCEC
TAF
KCEC 301724Z 3018/3118 VRB06KT P6SM OVC005
     FM302000 22006KT P6SM OVC010
     FM310200 VRB04KT P6SM OVC009
     FM310500 00000KT P6SM OVC006=

USA.gov is the U.S. government's official web portal to all federal, state and local government web resources and services.